Time;durP1;ratioP1;P1;durP2;ratioP2;P2;SDS_P1;SDS_P2;PMS_P1;PMS_P2;Temp;Humidity;BMP_temperature;BMP_pressure;BME280_temperature;BME280_humidity;BME280_pressure;Samples;Min_cycle;Max_cycle;Signal;HPM_P1;HPM_P2
2022/09/23 00:01:23;;;;;;;15.55;13.95;;;;;;;;;;5010260;28;20073;-67
2022/09/23 00:03:49;;;;;;;15.57;13.50;;;;;;;;;;5008246;28;20403;-67
2022/09/23 00:06:16;;;;;;;17.45;13.93;;;;;;;;;;5010779;28;20045;-67
2022/09/23 00:08:43;;;;;;;15.18;13.45;;;;;;;;;;5010990;28;20038;-67
2022/09/23 00:11:10;;;;;;;16.15;13.43;;;;;;;;;;5009768;28;20048;-67
2022/09/23 00:13:37;;;;;;;15.23;13.38;;;;;;;;;;5011682;28;20038;-67
2022/09/23 00:16:07;;;;;;;14.68;13.10;;;;;;;;;;5003335;28;20042;-67
2022/09/23 00:18:33;;;;;;;12.07;10.82;;;;;;;;;;5001602;28;20494;-67
2022/09/23 00:21:05;;;;;;;13.98;12.35;;;;;;;;;;5009934;28;20049;-67
2022/09/23 00:23:32;;;;;;;12.45;11.13;;;;;;;;;;5008165;28;20495;-67
2022/09/23 00:26:01;;;;;;;11.32;10.13;;;;;;;;;;5040787;22;20043;-63
2022/09/23 00:28:27;;;;;;;13.63;12.27;;;;;;;;;;5089011;28;20044;-63
2022/09/23 00:30:53;;;;;;;13.65;12.13;;;;;;;;;;5088992;28;20070;-63
2022/09/23 00:33:19;;;;;;;16.08;13.80;;;;;;;;;;5091442;28;20040;-63
2022/09/23 00:35:46;;;;;;;14.65;12.85;;;;;;;;;;5089982;28;20079;-63
2022/09/23 00:38:13;;;;;;;14.43;12.93;;;;;;;;;;5090857;28;20036;-63
2022/09/23 00:40:45;;;;;;;16.48;14.75;;;;;;;;;;5089949;28;20036;-64
2022/09/23 00:43:13;;;;;;;14.90;13.40;;;;;;;;;;5090291;28;20111;-63
2022/09/23 00:45:40;;;;;;;15.13;13.52;;;;;;;;;;5085086;28;20038;-62
2022/09/23 00:48:11;;;;;;;16.05;13.48;;;;;;;;;;5089693;28;20035;-63
2022/09/23 00:50:39;;;;;;;16.65;14.73;;;;;;;;;;5080972;28;20058;-62
2022/09/23 00:53:08;;;;;;;15.38;13.88;;;;;;;;;;5090588;28;20040;-62
2022/09/23 00:55:38;;;;;;;15.35;13.85;;;;;;;;;;5083285;28;20051;-63
2022/09/23 00:58:07;;;;;;;10.05;8.95;;;;;;;;;;5090427;28;20048;-63
2022/09/23 01:00:34;;;;;;;12.40;9.43;;;;;;;;;;5088284;28;20048;-62
2022/09/23 01:03:00;;;;;;;15.82;13.05;;;;;;;;;;5090898;28;20414;-63
2022/09/23 01:05:26;;;;;;;13.27;11.70;;;;;;;;;;5091105;28;20032;-62
2022/09/23 01:07:53;;;;;;;15.65;14.15;;;;;;;;;;5091380;28;20718;-62
2022/09/23 01:10:20;;;;;;;15.43;13.43;;;;;;;;;;5091665;28;20036;-63
2022/09/23 01:12:46;;;;;;;17.10;15.40;;;;;;;;;;5091248;28;20047;-63
2022/09/23 01:15:12;;;;;;;15.73;14.13;;;;;;;;;;5094291;28;20101;-62
2022/09/23 01:17:46;;;;;;;16.92;15.15;;;;;;;;;;5094644;28;20501;-62
2022/09/23 01:20:12;;;;;;;19.52;15.63;;;;;;;;;;5093383;28;20044;-62
2022/09/23 01:22:43;;;;;;;17.40;15.55;;;;;;;;;;5094616;28;20056;-62
2022/09/23 01:25:09;;;;;;;;;;;;;;;;;;5093385;28;20107;-63
2022/09/23 01:27:41;;;;;;;19.23;15.85;;;;;;;;;;5093650;28;20011;-62
2022/09/23 01:30:07;;;;;;;19.77;15.45;;;;;;;;;;5091675;28;20093;-63
2022/09/23 01:32:56;;;;;;;11.45;10.05;;;;;;;;;;5093182;28;20054;-63
2022/09/23 01:35:29;;;;;;;10.43;9.40;;;;;;;;;;5090276;28;20047;-63
2022/09/23 01:38:01;;;;;;;10.25;9.02;;;;;;;;;;5094301;28;20044;-63
2022/09/23 01:40:41;;;;;;;11.70;10.50;;;;;;;;;;5091166;28;20132;-63
2022/09/23 01:43:09;;;;;;;12.35;10.23;;;;;;;;;;5084544;28;20040;-63
2022/09/23 01:45:42;;;;;;;13.43;11.77;;;;;;;;;;5094096;28;20079;-63
2022/09/23 01:48:12;;;;;;;14.48;12.98;;;;;;;;;;5094261;28;20043;-63
2022/09/23 01:50:56;;;;;;;13.70;12.37;;;;;;;;;;5092482;28;20044;-63
2022/09/23 01:53:41;;;;;;;16.88;13.85;;;;;;;;;;5092840;28;20048;-63
2022/09/23 01:56:14;;;;;;;17.67;15.25;;;;;;;;;;5091938;28;20535;-63
2022/09/23 01:58:44;;;;;;;17.50;15.68;;;;;;;;;;5093444;28;20040;-63
2022/09/23 02:01:15;;;;;;;17.55;15.60;;;;;;;;;;5090302;28;20032;-63
2022/09/23 02:03:44;;;;;;;19.20;16.15;;;;;;;;;;5093993;28;20116;-63
2022/09/23 02:06:25;;;;;;;18.35;16.48;;;;;;;;;;5090623;28;20036;-63
2022/09/23 02:08:59;;;;;;;16.63;14.82;;;;;;;;;;5086053;28;20047;-63
2022/09/23 02:11:25;;;;;;;18.27;15.80;;;;;;;;;;5091133;28;20095;-63
2022/09/23 02:14:14;;;;;;;18.33;15.23;;;;;;;;;;5091999;28;20068;-63
2022/09/23 02:16:46;;;;;;;17.02;15.07;;;;;;;;;;5085632;28;20086;-63
2022/09/23 02:19:18;;;;;;;15.68;13.73;;;;;;;;;;5092366;28;20047;-63
2022/09/23 02:21:46;;;;;;;15.77;14.25;;;;;;;;;;5092499;28;20512;-63
2022/09/23 02:24:14;;;;;;;16.02;14.43;;;;;;;;;;5092467;28;20128;-62
2022/09/23 02:26:40;;;;;;;16.85;14.55;;;;;;;;;;5093261;28;20040;-62
2022/09/23 02:29:09;;;;;;;16.80;15.00;;;;;;;;;;5090336;28;20127;-62
2022/09/23 02:31:47;;;;;;;16.80;14.48;;;;;;;;;;5083842;28;20044;-62
2022/09/23 02:34:28;;;;;;;16.83;14.93;;;;;;;;;;5093120;28;20417;-62
2022/09/23 02:36:54;;;;;;;;;;;;;;;;;;5093809;28;20052;-63
2022/09/23 02:39:23;;;;;;;15.88;14.25;;;;;;;;;;5091118;28;20010;-63
2022/09/23 02:42:06;;;;;;;17.25;14.45;;;;;;;;;;5092637;28;20083;-63
2022/09/23 02:44:32;;;;;;;16.70;14.13;;;;;;;;;;5093139;28;20035;-63
2022/09/23 02:46:59;;;;;;;18.17;14.77;;;;;;;;;;5091236;28;20478;-62
2022/09/23 02:49:27;;;;;;;17.38;15.13;;;;;;;;;;5090416;28;20566;-63
2022/09/23 02:51:53;;;;;;;15.68;14.02;;;;;;;;;;5092443;28;20052;-62
2022/09/23 02:54:20;;;;;;;16.13;14.43;;;;;;;;;;5091808;28;20124;-62
2022/09/23 02:56:48;;;;;;;16.85;14.65;;;;;;;;;;5091544;28;20043;-63
2022/09/23 02:59:18;;;;;;;16.40;14.70;;;;;;;;;;5091796;28;20401;-62
2022/09/23 03:01:59;;;;;;;15.77;13.90;;;;;;;;;;5090408;28;20497;-63
2022/09/23 03:04:46;;;;;;;16.83;13.68;;;;;;;;;;5091141;28;20054;-62
2022/09/23 03:07:31;;;;;;;15.98;14.15;;;;;;;;;;5086202;28;20040;-62
2022/09/23 03:09:57;;;;;;;15.73;14.07;;;;;;;;;;5091051;28;20040;-63
2022/09/23 03:12:30;;;;;;;15.88;14.13;;;;;;;;;;5092081;28;20043;-63
2022/09/23 03:14:56;;;;;;;15.45;13.07;;;;;;;;;;5092517;28;20125;-62
2022/09/23 03:17:29;;;;;;;15.90;13.80;;;;;;;;;;5091131;28;20051;-62
2022/09/23 03:20:02;;;;;;;15.02;13.52;;;;;;;;;;5091025;28;20062;-63
2022/09/23 03:22:33;;;;;;;15.60;14.10;;;;;;;;;;5089609;28;20032;-63
2022/09/23 03:25:02;;;;;;;16.90;13.75;;;;;;;;;;5086617;28;20047;-62
2022/09/23 03:27:29;;;;;;;15.25;13.32;;;;;;;;;;5091375;28;20397;-62
2022/09/23 03:29:55;;;;;;;16.27;14.13;;;;;;;;;;5090454;28;20046;-63
2022/09/23 03:32:23;;;;;;;14.45;13.02;;;;;;;;;;5090331;28;20111;-63
2022/09/23 03:34:51;;;;;;;17.85;13.88;;;;;;;;;;5090965;28;20076;-63
2022/09/23 03:37:29;;;;;;;15.20;13.73;;;;;;;;;;5090825;28;20623;-63
2022/09/23 03:40:00;;;;;;;14.57;12.85;;;;;;;;;;5089800;28;20544;-63
2022/09/23 03:42:28;;;;;;;14.88;13.10;;;;;;;;;;5088959;28;20036;-63
2022/09/23 03:44:56;;;;;;;14.32;12.82;;;;;;;;;;5091828;28;20050;-64
2022/09/23 03:47:23;;;;;;;15.95;14.13;;;;;;;;;;5090073;28;20036;-63
2022/09/23 03:49:50;;;;;;;15.73;13.77;;;;;;;;;;5089458;28;20119;-63
2022/09/23 03:52:17;;;;;;;15.63;14.02;;;;;;;;;;5087402;28;20036;-63
2022/09/23 03:54:44;;;;;;;16.15;13.45;;;;;;;;;;5090637;28;20449;-63
2022/09/23 03:57:10;;;;;;;17.30;13.90;;;;;;;;;;5090800;28;20043;-63
2022/09/23 03:59:36;;;;;;;15.15;13.55;;;;;;;;;;5090737;28;20394;-63
2022/09/23 04:02:04;;;;;;;16.27;13.43;;;;;;;;;;5080430;28;20082;-63
2022/09/23 04:04:33;;;;;;;15.07;13.52;;;;;;;;;;5088177;28;20489;-63
2022/09/23 04:06:59;;;;;;;16.15;14.27;;;;;;;;;;5090450;28;20420;-63
2022/09/23 04:09:25;;;;;;;15.70;14.02;;;;;;;;;;5088096;28;20492;-63
2022/09/23 04:11:52;;;;;;;15.52;13.85;;;;;;;;;;5088279;28;20486;-63
2022/09/23 04:14:19;;;;;;;17.95;13.45;;;;;;;;;;5091182;28;20046;-63
2022/09/23 04:16:45;;;;;;;14.88;13.27;;;;;;;;;;5090214;28;20044;-63
2022/09/23 04:19:12;;;;;;;15.35;13.85;;;;;;;;;;5089440;28;20028;-63
2022/09/23 04:21:38;;;;;;;15.70;13.73;;;;;;;;;;5091172;28;20123;-63
2022/09/23 04:24:04;;;;;;;16.08;13.65;;;;;;;;;;5089590;28;20491;-63
2022/09/23 04:26:30;;;;;;;15.63;13.32;;;;;;;;;;5091154;28;20040;-63
2022/09/23 04:28:57;;;;;;;18.20;14.23;;;;;;;;;;5090393;28;20036;-63
2022/09/23 04:31:23;;;;;;;13.82;12.43;;;;;;;;;;5090056;28;20040;-63
2022/09/23 04:33:52;;;;;;;15.50;13.70;;;;;;;;;;5091053;28;20036;-63
2022/09/23 04:36:18;;;;;;;14.93;13.43;;;;;;;;;;5091422;28;20040;-63
2022/09/23 04:38:45;;;;;;;14.68;13.18;;;;;;;;;;5089672;28;20115;-63
2022/09/23 04:41:12;;;;;;;14.15;12.45;;;;;;;;;;5090554;28;20048;-63
2022/09/23 04:43:38;;;;;;;14.27;12.77;;;;;;;;;;5090593;28;20040;-63
2022/09/23 04:46:05;;;;;;;15.48;12.43;;;;;;;;;;5092372;28;20036;-63
2022/09/23 04:48:31;;;;;;;13.82;12.43;;;;;;;;;;5094156;28;20394;-63
2022/09/23 04:51:04;;;;;;;15.15;11.73;;;;;;;;;;5093329;28;20035;-63
2022/09/23 04:53:31;;;;;;;14.90;13.30;;;;;;;;;;5094554;28;20044;-63
2022/09/23 04:56:04;;;;;;;14.85;13.15;;;;;;;;;;5095042;28;20618;-63
2022/09/23 04:58:30;;;;;;;14.00;12.10;;;;;;;;;;5093036;28;20052;-63
2022/09/23 05:00:56;;;;;;;15.80;13.38;;;;;;;;;;5091706;28;20102;-63
2022/09/23 05:03:23;;;;;;;16.80;12.65;;;;;;;;;;5094493;28;20043;-63
2022/09/23 05:05:49;;;;;;;14.13;12.10;;;;;;;;;;5093854;28;20048;-63
2022/09/23 05:08:15;;;;;;;13.70;12.07;;;;;;;;;;5091796;28;20036;-63
2022/09/23 05:10:41;;;;;;;16.17;12.43;;;;;;;;;;5093632;28;20123;-63
2022/09/23 05:13:07;;;;;;;13.43;12.02;;;;;;;;;;5093002;28;20101;-63
2022/09/23 05:15:33;;;;;;;15.35;12.73;;;;;;;;;;5091425;28;20123;-63
2022/09/23 05:18:01;;;;;;;13.10;11.75;;;;;;;;;;5091346;28;20119;-63
2022/09/23 05:20:27;;;;;;;16.08;11.52;;;;;;;;;;5091154;28;20056;-63
2022/09/23 05:22:54;;;;;;;15.45;12.10;;;;;;;;;;5094204;28;20086;-63
2022/09/23 05:25:22;;;;;;;13.70;12.30;;;;;;;;;;5093047;28;20051;-63
2022/09/23 05:27:48;;;;;;;13.27;11.68;;;;;;;;;;5094236;28;20040;-63
2022/09/23 05:30:14;;;;;;;13.13;11.88;;;;;;;;;;5093254;28;20036;-63
2022/09/23 05:32:40;;;;;;;13.07;11.70;;;;;;;;;;5094344;28;20104;-63
2022/09/23 05:35:06;;;;;;;13.63;12.25;;;;;;;;;;5090538;28;20036;-63
2022/09/23 05:37:32;;;;;;;14.32;11.50;;;;;;;;;;5085837;28;20499;-63
2022/09/23 05:39:58;;;;;;;15.68;11.75;;;;;;;;;;5092796;28;20370;-63
2022/09/23 05:42:24;;;;;;;14.75;12.15;;;;;;;;;;5093387;28;20047;-63
2022/09/23 05:44:51;;;;;;;16.83;13.32;;;;;;;;;;5093351;28;20070;-63
2022/09/23 05:47:17;;;;;;;13.48;12.13;;;;;;;;;;5091347;28;20036;-63
2022/09/23 05:49:43;;;;;;;13.38;11.98;;;;;;;;;;5085715;28;20047;-63
2022/09/23 05:52:09;;;;;;;14.10;11.60;;;;;;;;;;5091739;28;20047;-63
2022/09/23 05:54:35;;;;;;;16.83;12.80;;;;;;;;;;5091462;28;20036;-63
2022/09/23 05:57:02;;;;;;;13.40;12.05;;;;;;;;;;5092334;28;20042;-63
2022/09/23 05:59:28;;;;;;;14.70;12.30;;;;;;;;;;5092096;28;20070;-64
2022/09/23 06:01:55;;;;;;;15.40;12.85;;;;;;;;;;5087123;28;20641;-63
2022/09/23 06:04:21;;;;;;;13.88;12.38;;;;;;;;;;5090496;28;20390;-63
2022/09/23 06:06:47;;;;;;;12.95;11.25;;;;;;;;;;5090771;28;20051;-63
2022/09/23 06:09:14;;;;;;;13.38;11.98;;;;;;;;;;5087188;28;20046;-63
2022/09/23 06:11:40;;;;;;;16.33;12.75;;;;;;;;;;5093912;28;20048;-63
2022/09/23 06:14:08;;;;;;;14.05;12.50;;;;;;;;;;5092664;28;20047;-63
2022/09/23 06:16:35;;;;;;;14.52;13.00;;;;;;;;;;5088428;28;20400;-63
2022/09/23 06:19:04;;;;;;;14.10;12.45;;;;;;;;;;5082052;28;20038;-64
2022/09/23 06:21:30;;;;;;;15.45;12.77;;;;;;;;;;5092113;28;20059;-64
2022/09/23 06:23:59;;;;;;;13.93;11.70;;;;;;;;;;5093524;28;20397;-63
2022/09/23 06:26:25;;;;;;;15.77;13.07;;;;;;;;;;5081008;22;20041;-67
2022/09/23 06:28:51;;;;;;;17.17;12.10;;;;;;;;;;5027175;28;20044;-67
2022/09/23 06:31:17;;;;;;;16.30;12.38;;;;;;;;;;5031324;28;20044;-67
2022/09/23 06:33:44;;;;;;;15.93;12.50;;;;;;;;;;5030976;28;20037;-67
2022/09/23 06:36:11;;;;;;;18.92;12.70;;;;;;;;;;5026924;28;20445;-67
2022/09/23 06:38:43;;;;;;;21.58;12.82;;;;;;;;;;5032257;28;20168;-67
2022/09/23 06:41:09;;;;;;;14.57;12.40;;;;;;;;;;5019209;28;20073;-67
2022/09/23 06:43:35;;;;;;;14.70;11.52;;;;;;;;;;5031446;28;20038;-67
2022/09/23 06:46:02;;;;;;;19.50;13.18;;;;;;;;;;5031026;28;20029;-67
2022/09/23 06:48:29;;;;;;;16.02;12.65;;;;;;;;;;5031040;28;20563;-67
2022/09/23 06:50:58;;;;;;;19.67;12.55;;;;;;;;;;5032389;28;20848;-67
2022/09/23 06:53:24;;;;;;;14.93;12.30;;;;;;;;;;5032243;28;20051;-67
2022/09/23 06:56:04;;;;;;;13.80;12.05;;;;;;;;;;5023118;28;20126;-67
2022/09/23 06:58:30;;;;;;;15.45;12.95;;;;;;;;;;5017085;28;20046;-68
2022/09/23 07:01:07;;;;;;;15.85;13.02;;;;;;;;;;5017606;28;20050;-67
2022/09/23 07:03:33;;;;;;;18.45;12.30;;;;;;;;;;5029887;28;20037;-68
2022/09/23 07:05:59;;;;;;;15.52;13.23;;;;;;;;;;5027177;28;20120;-67
2022/09/23 07:08:26;;;;;;;15.90;12.63;;;;;;;;;;5029287;28;20056;-67
2022/09/23 07:10:56;;;;;;;16.52;12.63;;;;;;;;;;5030330;28;20041;-68
2022/09/23 07:13:23;;;;;;;18.48;12.73;;;;;;;;;;5028278;28;20117;-67
2022/09/23 07:15:53;;;;;;;17.42;13.65;;;;;;;;;;5028202;28;20047;-68
2022/09/23 07:18:20;;;;;;;17.02;12.75;;;;;;;;;;5030163;28;20068;-67
2022/09/23 07:20:47;;;;;;;16.13;12.52;;;;;;;;;;5031935;28;20057;-67
2022/09/23 07:23:13;;;;;;;18.67;13.35;;;;;;;;;;5030327;28;20108;-67
2022/09/23 07:25:39;;;;;;;14.82;12.77;;;;;;;;;;5028717;28;20041;-67
2022/09/23 07:28:06;;;;;;;18.38;12.57;;;;;;;;;;5029542;28;20114;-68
2022/09/23 07:30:35;;;;;;;17.40;14.32;;;;;;;;;;5029482;28;20510;-67
2022/09/23 07:33:01;;;;;;;16.88;12.90;;;;;;;;;;5022480;28;20043;-67
2022/09/23 07:35:27;;;;;;;17.40;13.40;;;;;;;;;;5029801;28;20580;-67
2022/09/23 07:37:53;;;;;;;20.27;14.05;;;;;;;;;;5026762;28;20120;-67
2022/09/23 07:40:19;;;;;;;21.02;13.40;;;;;;;;;;5028661;28;20045;-67
2022/09/23 07:42:46;;;;;;;17.40;12.98;;;;;;;;;;5028415;28;20041;-68
2022/09/23 07:45:12;;;;;;;17.58;13.30;;;;;;;;;;5029841;28;20041;-68
2022/09/23 07:47:38;;;;;;;18.13;14.20;;;;;;;;;;5029305;28;20068;-67
2022/09/23 07:50:06;;;;;;;18.33;14.02;;;;;;;;;;5028858;28;20462;-68
2022/09/23 07:52:35;;;;;;;19.65;13.93;;;;;;;;;;5017502;28;20076;-67
2022/09/23 07:55:01;;;;;;;16.88;12.98;;;;;;;;;;5031290;28;20072;-68
2022/09/23 07:57:27;;;;;;;18.80;13.50;;;;;;;;;;5030266;28;20041;-68
2022/09/23 07:59:53;;;;;;;18.42;13.68;;;;;;;;;;5029235;28;20033;-68
2022/09/23 08:02:19;;;;;;;17.58;12.90;;;;;;;;;;5027073;28;20510;-68
2022/09/23 08:04:45;;;;;;;16.83;12.30;;;;;;;;;;5022986;28;20044;-68
2022/09/23 08:07:12;;;;;;;18.67;12.95;;;;;;;;;;5026114;28;20044;-68
2022/09/23 08:09:40;;;;;;;17.15;13.25;;;;;;;;;;5027870;28;20125;-67
2022/09/23 08:12:07;;;;;;;15.85;12.50;;;;;;;;;;5019759;28;20045;-67
2022/09/23 08:14:33;;;;;;;15.98;12.65;;;;;;;;;;5024315;28;20072;-67
2022/09/23 08:16:59;;;;;;;20.23;12.35;;;;;;;;;;5023266;28;20033;-67
2022/09/23 08:19:25;;;;;;;15.32;10.07;;;;;;;;;;5029220;28;20049;-67
2022/09/23 08:21:51;;;;;;;13.95;11.43;;;;;;;;;;5027797;28;20041;-67
2022/09/23 08:24:19;;;;;;;16.52;12.57;;;;;;;;;;5032223;28;20502;-67
2022/09/23 08:26:46;;;;;;;17.83;12.70;;;;;;;;;;5031366;28;20048;-67
2022/09/23 08:29:16;;;;;;;20.75;12.82;;;;;;;;;;5033104;28;20040;-67
2022/09/23 08:31:42;;;;;;;20.08;12.15;;;;;;;;;;5032998;28;20041;-67
2022/09/23 08:34:09;;;;;;;16.75;12.52;;;;;;;;;;5033414;28;20503;-67
2022/09/23 08:36:35;;;;;;;14.95;11.70;;;;;;;;;;5032478;28;20072;-67
2022/09/23 08:39:01;;;;;;;18.65;12.82;;;;;;;;;;5031859;28;20041;-68
2022/09/23 08:41:37;;;;;;;17.25;11.80;;;;;;;;;;5032698;28;20041;-68
2022/09/23 08:44:07;;;;;;;16.95;11.63;;;;;;;;;;5034321;28;20037;-68
2022/09/23 08:46:53;;;;;;;16.08;11.95;;;;;;;;;;5028448;28;20053;-67
2022/09/23 08:49:23;;;;;;;13.15;11.30;;;;;;;;;;5032842;28;20041;-67
2022/09/23 08:51:53;;;;;;;17.00;10.90;;;;;;;;;;5034298;28;20497;-67
2022/09/23 08:54:19;;;;;;;15.77;10.75;;;;;;;;;;5031809;28;20041;-67
2022/09/23 08:56:48;;;;;;;15.50;11.15;;;;;;;;;;5029661;28;20116;-68
2022/09/23 08:59:28;;;;;;;15.63;12.10;;;;;;;;;;5031733;28;20069;-68
2022/09/23 09:02:04;;;;;;;15.05;11.80;;;;;;;;;;5030438;28;20045;-68
2022/09/23 09:04:37;;;;;;;16.15;11.25;;;;;;;;;;5033234;28;20045;-68
2022/09/23 09:07:06;;;;;;;16.92;11.90;;;;;;;;;;5027222;28;20642;-68
2022/09/23 09:09:35;;;;;;;16.77;11.63;;;;;;;;;;5028012;28;20087;-68
2022/09/23 09:12:10;;;;;;;16.35;10.75;;;;;;;;;;5033122;28;20034;-68
2022/09/23 09:14:45;;;;;;;16.45;11.80;;;;;;;;;;5032311;28;20046;-68
2022/09/23 09:17:18;;;;;;;14.70;11.05;;;;;;;;;;5033590;28;20037;-68
2022/09/23 09:19:52;;;;;;;15.13;10.52;;;;;;;;;;5031807;28;20049;-68
2022/09/23 09:22:20;;;;;;;14.10;11.18;;;;;;;;;;5030579;28;20048;-68
2022/09/23 09:24:48;;;;;;;14.95;11.57;;;;;;;;;;5031653;28;20042;-68
2022/09/23 09:27:14;;;;;;;16.55;11.68;;;;;;;;;;5030806;28;20036;-68
2022/09/23 09:29:45;;;;;;;13.65;11.32;;;;;;;;;;5029532;28;20061;-68
2022/09/23 09:32:18;;;;;;;16.52;11.70;;;;;;;;;;5032493;28;20106;-68
2022/09/23 09:34:47;;;;;;;15.40;11.40;;;;;;;;;;5031981;28;20042;-68
2022/09/23 09:37:23;;;;;;;14.77;12.18;;;;;;;;;;5031747;28;20048;-68
2022/09/23 09:39:49;;;;;;;13.25;10.88;;;;;;;;;;5027373;28;20038;-68
2022/09/23 09:42:19;;;;;;;14.38;11.30;;;;;;;;;;5033271;28;20037;-68
2022/09/23 09:44:53;;;;;;;15.07;11.40;;;;;;;;;;5031593;28;20037;-68
2022/09/23 09:47:37;;;;;;;15.98;10.88;;;;;;;;;;5031046;28;20048;-68
2022/09/23 09:50:05;;;;;;;13.85;11.27;;;;;;;;;;5032437;28;20068;-68
2022/09/23 09:52:31;;;;;;;16.38;11.88;;;;;;;;;;5031596;28;20084;-68
2022/09/23 09:55:13;;;;;;;14.73;10.88;;;;;;;;;;5033792;28;20041;-68
2022/09/23 09:57:39;;;;;;;14.00;11.40;;;;;;;;;;5032867;28;20047;-68
2022/09/23 10:00:19;;;;;;;13.32;11.43;;;;;;;;;;5032459;28;20118;-68
2022/09/23 10:02:46;;;;;;;15.88;11.00;;;;;;;;;;5031873;28;20046;-68
2022/09/23 10:05:24;;;;;;;17.23;10.75;;;;;;;;;;5033826;28;20037;-68
2022/09/23 10:07:50;;;;;;;13.82;10.55;;;;;;;;;;5032299;28;20049;-68
2022/09/23 10:10:19;;;;;;;15.35;10.75;;;;;;;;;;5030621;28;20045;-67
2022/09/23 10:12:47;;;;;;;14.30;10.45;;;;;;;;;;5030120;28;20045;-68
2022/09/23 10:15:40;;;;;;;14.82;11.10;;;;;;;;;;5022703;28;20127;-68
2022/09/23 10:18:18;;;;;;;14.77;10.82;;;;;;;;;;5028403;28;20102;-68
2022/09/23 10:20:45;;;;;;;14.10;10.40;;;;;;;;;;5027685;28;20410;-68
2022/09/23 10:23:19;;;;;;;15.15;10.93;;;;;;;;;;5029919;28;20045;-68
2022/09/23 10:25:54;;;;;;;12.77;10.48;;;;;;;;;;5030968;28;20103;-68
2022/09/23 10:28:30;;;;;;;15.20;10.60;;;;;;;;;;5030523;28;20398;-68
2022/09/23 10:31:05;;;;;;;13.57;10.52;;;;;;;;;;5022608;28;20557;-67
2022/09/23 10:33:31;;;;;;;15.65;10.75;;;;;;;;;;5028139;28;20411;-68
2022/09/23 10:35:57;;;;;;;14.00;10.25;;;;;;;;;;5030478;28;20052;-68
2022/09/23 10:38:23;;;;;;;13.27;10.05;;;;;;;;;;5031437;28;20439;-68
2022/09/23 10:47:01;;;;;;;14.45;10.48;;;;;;;;;;5025550;28;20045;-68
2022/09/23 10:49:47;;;;;;;14.60;10.75;;;;;;;;;;5030557;28;20057;-68
2022/09/23 10:52:23;;;;;;;13.30;10.70;;;;;;;;;;5031116;28;20049;-69
2022/09/23 10:55:05;;;;;;;14.75;10.40;;;;;;;;;;5027074;28;20050;-68
2022/09/23 10:57:39;;;;;;;15.05;10.40;;;;;;;;;;5031848;28;20045;-69
2022/09/23 11:00:22;;;;;;;14.30;10.43;;;;;;;;;;5030443;28;20415;-68
2022/09/23 11:02:55;;;;;;;15.18;10.52;;;;;;;;;;5022419;28;20087;-68
2022/09/23 11:05:36;;;;;;;16.85;10.40;;;;;;;;;;5030580;28;20500;-69
2022/09/23 11:08:05;;;;;;;14.20;10.88;;;;;;;;;;5030450;28;20045;-69
2022/09/23 11:10:41;;;;;;;13.68;9.45;;;;;;;;;;5030243;28;20053;-68
2022/09/23 11:13:10;;;;;;;12.77;9.80;;;;;;;;;;5029595;28;20491;-68
2022/09/23 11:15:42;;;;;;;11.00;9.80;;;;;;;;;;5032007;28;20076;-68
2022/09/23 11:18:21;;;;;;;12.98;10.13;;;;;;;;;;5021672;28;20049;-68
2022/09/23 11:20:47;;;;;;;14.85;10.02;;;;;;;;;;5025149;28;20049;-67
2022/09/23 11:23:25;;;;;;;14.18;10.43;;;;;;;;;;5028683;28;20522;-67
2022/09/23 11:26:10;;;;;;;15.57;10.63;;;;;;;;;;5026737;28;20086;-68
2022/09/23 11:28:42;;;;;;;14.52;10.43;;;;;;;;;;5029982;28;20041;-68
2022/09/23 11:31:28;;;;;;;14.38;9.85;;;;;;;;;;5030895;28;20445;-68
2022/09/23 11:34:01;;;;;;;14.60;10.05;;;;;;;;;;5019415;28;20059;-67
2022/09/23 11:36:32;;;;;;;13.02;10.40;;;;;;;;;;5029496;28;20041;-67
2022/09/23 11:38:59;;;;;;;14.43;10.38;;;;;;;;;;5028643;28;20037;-67
2022/09/23 11:41:30;;;;;;;14.65;9.95;;;;;;;;;;5028922;28;20044;-68
2022/09/23 11:44:02;;;;;;;14.10;10.03;;;;;;;;;;5026191;28;20040;-68
2022/09/23 11:46:41;;;;;;;13.38;10.45;;;;;;;;;;5027627;28;20284;-68
2022/09/23 11:49:28;;;;;;;14.52;10.20;;;;;;;;;;5029020;28;20033;-68
2022/09/23 11:52:12;;;;;;;15.32;10.88;;;;;;;;;;5028772;28;20045;-68
2022/09/23 11:54:59;;;;;;;14.40;10.43;;;;;;;;;;5022099;28;20129;-68
2022/09/23 11:57:34;;;;;;;14.63;10.77;;;;;;;;;;5026224;28;20414;-68
2022/09/23 12:00:02;;;;;;;12.40;10.30;;;;;;;;;;5026588;28;20045;-68
2022/09/23 12:02:35;;;;;;;19.05;11.63;;;;;;;;;;5025191;28;20440;-67
2022/09/23 12:05:12;;;;;;;18.02;11.35;;;;;;;;;;5024175;28;20121;-67
2022/09/23 12:07:44;;;;;;;17.02;11.00;;;;;;;;;;5023679;28;20037;-67
2022/09/23 12:10:11;;;;;;;16.13;10.70;;;;;;;;;;5029839;28;20080;-68
2022/09/23 12:12:46;;;;;;;15.00;10.52;;;;;;;;;;5030258;28;20045;-68
2022/09/23 12:15:30;;;;;;;16.95;11.13;;;;;;;;;;5026083;28;20077;-68
2022/09/23 12:18:11;;;;;;;15.38;10.27;;;;;;;;;;5022433;28;20053;-68
2022/09/23 12:20:41;;;;;;;15.48;10.85;;;;;;;;;;5030892;28;20073;-68
2022/09/23 12:23:22;;;;;;;16.70;11.90;;;;;;;;;;5029578;28;20041;-67
2022/09/23 12:25:55;;;;;;;14.55;10.32;;;;;;;;;;5026926;28;20045;-67
2022/09/23 12:28:43;;;;;;;16.17;11.18;;;;;;;;;;5030053;28;20491;-68
2022/09/23 12:31:11;;;;;;;14.52;10.13;;;;;;;;;;5031389;28;20419;-67
2022/09/23 12:33:37;;;;;;;15.18;10.38;;;;;;;;;;5027599;28;20048;-67
2022/09/23 12:36:03;;;;;;;15.65;10.45;;;;;;;;;;5030933;28;20045;-67
2022/09/23 12:38:35;;;;;;;12.43;9.90;;;;;;;;;;5030234;28;20099;-67
2022/09/23 12:41:07;;;;;;;14.13;10.00;;;;;;;;;;5031394;28;20076;-68
2022/09/23 12:43:34;;;;;;;14.85;10.23;;;;;;;;;;5020028;28;20599;-68
2022/09/23 12:46:38;;;;;;;13.25;10.38;;;;;;;;;;5031050;28;20087;-68
2022/09/23 12:49:06;;;;;;;11.68;9.70;;;;;;;;;;5005769;28;20065;-68
2022/09/23 12:51:33;;;;;;;14.60;9.32;;;;;;;;;;4999670;28;20560;-68
2022/09/23 12:54:14;;;;;;;13.57;9.20;;;;;;;;;;5017253;28;20128;-68
2022/09/23 12:56:41;;;;;;;12.70;9.70;;;;;;;;;;5023015;28;20503;-67
2022/09/23 12:59:12;;;;;;;13.70;9.80;;;;;;;;;;5026678;28;20049;-67
2022/09/23 13:01:39;;;;;;;17.70;10.27;;;;;;;;;;5027368;28;20068;-67
2022/09/23 13:06:57;;;;;;;15.50;9.70;;;;;;;;;;5032155;28;20041;-67
2022/09/23 13:09:28;;;;;;;15.30;10.90;;;;;;;;;;5033096;28;20041;-67
2022/09/23 13:11:57;;;;;;;17.27;10.18;;;;;;;;;;5033028;28;20041;-67
2022/09/23 13:14:24;;;;;;;14.82;10.65;;;;;;;;;;5032374;28;20495;-67
2022/09/23 13:16:50;;;;;;;14.40;10.63;;;;;;;;;;5033689;28;20519;-67
2022/09/23 13:19:39;;;;;;;16.20;10.55;;;;;;;;;;5036622;28;20077;-66
2022/09/23 13:22:07;;;;;;;14.80;10.15;;;;;;;;;;5024738;28;20053;-67
2022/09/23 13:24:33;;;;;;;12.23;9.68;;;;;;;;;;5058808;22;20049;-64
2022/09/23 13:27:00;;;;;;;14.38;10.27;;;;;;;;;;5056528;28;20443;-65
2022/09/23 13:29:32;;;;;;;13.95;10.73;;;;;;;;;;5050062;28;20044;-63
2022/09/23 13:31:58;;;;;;;12.85;9.90;;;;;;;;;;5052046;28;20052;-64
2022/09/23 13:34:27;;;;;;;12.30;9.18;;;;;;;;;;5059021;28;20045;-64
2022/09/23 13:36:53;;;;;;;14.68;9.80;;;;;;;;;;5054264;28;20048;-63
2022/09/23 13:39:24;;;;;;;11.15;8.65;;;;;;;;;;5055290;28;20044;-64
2022/09/23 13:41:52;;;;;;;12.10;9.45;;;;;;;;;;5054129;28;20077;-63
2022/09/23 13:44:19;;;;;;;15.43;9.57;;;;;;;;;;5054262;28;20025;-64
2022/09/23 13:46:50;;;;;;;15.80;9.68;;;;;;;;;;5053899;28;20045;-64
2022/09/23 13:49:16;;;;;;;;;;;;;;;;;;5052868;28;20041;-64
2022/09/23 13:51:44;;;;;;;11.25;9.52;;;;;;;;;;5052118;28;19916;-63
2022/09/23 13:54:25;;;;;;;12.82;9.15;;;;;;;;;;5050489;28;20565;-63
2022/09/23 13:56:51;;;;;;;13.43;10.25;;;;;;;;;;5052623;28;20052;-63
2022/09/23 13:59:24;;;;;;;15.38;9.57;;;;;;;;;;5054254;28;20070;-63
2022/09/23 14:01:50;;;;;;;14.77;9.55;;;;;;;;;;5050254;28;20128;-64
2022/09/23 14:04:24;;;;;;;15.32;10.32;;;;;;;;;;5056994;28;20041;-63
2022/09/23 14:06:50;;;;;;;13.57;9.45;;;;;;;;;;5051735;28;20059;-64
2022/09/23 14:09:17;;;;;;;12.23;9.73;;;;;;;;;;5052321;28;20039;-63
2022/09/23 14:11:43;;;;;;;14.15;10.35;;;;;;;;;;5053939;28;20308;-64
2022/09/23 14:14:14;;;;;;;15.23;9.88;;;;;;;;;;5059796;28;20051;-64
2022/09/23 14:16:41;;;;;;;12.82;9.18;;;;;;;;;;5052649;28;20041;-64
2022/09/23 14:19:10;;;;;;;12.27;9.73;;;;;;;;;;5052044;28;20044;-64
2022/09/23 14:21:37;;;;;;;16.58;10.05;;;;;;;;;;5050278;28;20136;-64
2022/09/23 14:24:12;;;;;;;17.42;10.20;;;;;;;;;;5054278;28;20051;-64
2022/09/23 14:26:39;;;;;;;16.75;9.60;;;;;;;;;;5033373;28;20033;-65
2022/09/23 14:29:06;;;;;;;14.48;10.13;;;;;;;;;;5045013;28;20040;-64
2022/09/23 14:31:32;;;;;;;14.77;9.77;;;;;;;;;;5047844;28;20037;-64
2022/09/23 14:33:58;;;;;;;15.88;9.57;;;;;;;;;;5061049;28;20127;-63
2022/09/23 14:39:10;;;;;;;13.88;9.55;;;;;;;;;;5048162;28;20128;-63
2022/09/23 14:41:38;;;;;;;14.70;9.52;;;;;;;;;;5053115;28;20041;-63
2022/09/23 14:44:04;;;;;;;12.88;9.35;;;;;;;;;;5052218;28;20445;-63
2022/09/23 14:46:33;;;;;;;11.68;9.50;;;;;;;;;;5052751;28;20479;-63